createdAt,value
2019-02-21T00:00:27.544Z,5.60
2019-02-21T00:01:27.491Z,5.70
2019-02-21T00:02:27.382Z,5.80
2019-02-21T00:03:27.293Z,5.60
2019-02-21T00:04:27.207Z,5.60
2019-02-21T00:05:27.132Z,5.80
2019-02-21T00:06:27.049Z,5.80
2019-02-21T00:07:26.958Z,5.70
2019-02-21T00:08:26.884Z,5.70
2019-02-21T00:09:26.802Z,5.90
2019-02-21T00:10:26.707Z,5.60
2019-02-21T00:11:26.621Z,5.80
2019-02-21T00:12:26.545Z,5.80
2019-02-21T00:13:26.471Z,5.70
2019-02-21T00:14:26.376Z,5.70
2019-02-21T00:15:26.285Z,5.90
2019-02-21T00:16:26.212Z,5.60
2019-02-21T00:17:26.125Z,5.80
2019-02-21T00:18:26.034Z,6.00
2019-02-21T00:19:25.961Z,6.20
2019-02-21T00:20:25.873Z,5.90
2019-02-21T00:21:25.782Z,6.20
2019-02-21T00:22:25.958Z,5.80
2019-02-21T00:23:25.629Z,6.10
2019-02-21T00:24:25.535Z,5.70
2019-02-21T00:25:25.450Z,6.00
2019-02-21T00:26:25.374Z,6.20
2019-02-21T00:27:25.285Z,5.70
2019-02-21T00:28:25.202Z,6.20
2019-02-21T00:29:25.122Z,6.20
2019-02-21T00:30:34.610Z,6.10
2019-02-21T00:31:24.949Z,5.80
2019-02-21T00:32:24.860Z,5.80
2019-02-21T00:33:24.796Z,6.10
2019-02-21T00:34:24.698Z,6.40
2019-02-21T00:35:24.610Z,6.10
2019-02-21T00:36:24.535Z,5.80
2019-02-21T00:37:24.449Z,6.00
2019-02-21T00:38:24.361Z,6.50
2019-02-21T00:39:24.275Z,5.50
2019-02-21T00:40:24.199Z,5.60
2019-02-21T00:41:24.109Z,5.90
2019-02-21T00:42:24.279Z,5.90
2019-02-21T00:43:23.947Z,6.40
2019-02-21T00:44:23.860Z,5.70
2019-02-21T00:45:23.783Z,5.80
2019-02-21T00:46:23.689Z,5.70
2019-02-21T00:47:23.613Z,5.90
2019-02-21T00:48:23.526Z,5.60
2019-02-21T00:49:23.439Z,5.70
2019-02-21T00:50:23.371Z,5.90
2019-02-21T00:51:23.278Z,6.00
2019-02-21T00:52:23.188Z,6.20
2019-02-21T00:53:23.100Z,6.20
2019-02-21T00:54:23.025Z,6.00
2019-02-21T00:55:22.936Z,5.70
2019-02-21T00:56:22.854Z,5.70
2019-02-21T00:57:22.777Z,5.50
2019-02-21T00:58:22.688Z,5.60
2019-02-21T00:59:22.604Z,5.60
2019-02-21T01:00:22.515Z,6.30
2019-02-21T01:01:22.437Z,6.00
2019-02-21T01:02:22.350Z,6.00
2019-02-21T01:03:22.275Z,5.80
2019-02-21T01:04:22.178Z,5.70
2019-02-21T01:05:22.102Z,5.50
2019-02-21T01:06:22.012Z,5.60
2019-02-21T01:07:21.939Z,5.50
2019-02-21T01:08:21.851Z,5.90
2019-02-21T01:09:21.768Z,6.00
2019-02-21T01:10:21.678Z,5.50
2019-02-21T01:11:21.590Z,5.60
2019-02-21T01:12:21.515Z,5.70
2019-02-21T01:13:21.430Z,5.50
2019-02-21T01:14:21.340Z,5.90
2019-02-21T01:15:21.258Z,5.60
2019-02-21T01:16:21.177Z,6.10
2019-02-21T01:17:21.094Z,5.70
2019-02-21T01:18:21.004Z,5.80
2019-02-21T01:19:20.929Z,5.70
2019-02-21T01:20:20.843Z,5.80
2019-02-21T01:21:20.760Z,6.30
2019-02-21T01:22:20.664Z,5.90
2019-02-21T01:23:20.590Z,6.00
2019-02-21T01:24:20.503Z,6.00
2019-02-21T01:25:20.429Z,5.70
2019-02-21T01:26:20.330Z,5.70
2019-02-21T01:27:20.256Z,6.30
2019-02-21T01:28:20.167Z,6.00
2019-02-21T01:29:20.164Z,5.70
2019-02-21T01:30:19.991Z,5.80
2019-02-21T01:31:19.916Z,6.10
2019-02-21T01:32:19.828Z,6.00
2019-02-21T01:33:19.754Z,6.00
2019-02-21T01:34:19.667Z,5.90
2019-02-21T01:35:19.580Z,6.30
2019-02-21T01:36:19.496Z,5.80
2019-02-21T01:37:19.417Z,6.20
2019-02-21T01:38:19.331Z,6.10
2019-02-21T01:39:19.255Z,5.80
2019-02-21T01:40:19.156Z,6.20
2019-02-21T01:41:19.069Z,6.00
2019-02-21T01:42:18.994Z,5.50
2019-02-21T01:43:18.938Z,6.30
2019-02-21T01:44:18.821Z,5.60
2019-02-21T01:45:18.731Z,6.10
2019-02-21T01:46:18.657Z,5.80
2019-02-21T01:47:18.569Z,6.60
2019-02-21T01:48:18.481Z,6.40
2019-02-21T01:49:18.394Z,6.10
2019-02-21T01:50:18.323Z,5.90
2019-02-21T01:51:18.230Z,5.60
2019-02-21T01:52:18.196Z,5.60
2019-02-21T01:53:18.072Z,6.10
2019-02-21T01:54:17.980Z,5.90
2019-02-21T01:55:17.892Z,6.50
2019-02-21T01:56:17.806Z,6.20
2019-02-21T01:57:17.732Z,6.30
2019-02-21T01:58:17.648Z,6.30
2019-02-21T01:59:17.559Z,6.20
2019-02-21T02:00:17.474Z,6.40
2019-02-21T02:01:17.393Z,6.30
2019-02-21T02:02:17.307Z,6.30
2019-02-21T02:03:17.219Z,6.00
2019-02-21T02:04:17.230Z,6.20
2019-02-21T02:05:17.058Z,6.20
2019-02-21T02:06:16.976Z,6.00
2019-02-21T02:07:17.133Z,6.00
2019-02-21T02:08:16.808Z,6.40
2019-02-21T02:09:16.721Z,6.70
2019-02-21T02:10:16.637Z,6.90
2019-02-21T02:11:16.547Z,6.50
2019-02-21T02:12:16.471Z,6.50
2019-02-21T02:13:24.154Z,6.10
2019-02-21T02:14:16.294Z,6.70
2019-02-21T02:15:16.219Z,6.50
2019-02-21T02:16:16.133Z,6.40
2019-02-21T02:17:16.047Z,6.60
2019-02-21T02:18:15.960Z,6.60
2019-02-21T02:19:15.886Z,6.80
2019-02-21T02:20:15.810Z,6.80
2019-02-21T02:21:15.709Z,6.40
2019-02-21T02:22:15.622Z,6.40
2019-02-21T02:23:15.546Z,6.90
2019-02-21T02:24:15.458Z,6.90
2019-02-21T02:25:15.378Z,6.70
2019-02-21T02:26:15.297Z,6.80
2019-02-21T02:27:15.215Z,6.40
2019-02-21T02:28:15.120Z,7.00
2019-02-21T02:29:15.047Z,6.60
2019-02-21T02:30:14.961Z,7.00
2019-02-21T02:31:22.619Z,6.60
2019-02-21T02:32:14.800Z,7.20
2019-02-21T02:33:14.709Z,7.80
2019-02-21T02:34:14.621Z,7.00
2019-02-21T02:35:14.535Z,7.60
2019-02-21T02:36:14.467Z,7.90
2019-02-21T02:37:14.374Z,7.80
2019-02-21T02:38:14.287Z,8.10
2019-02-21T02:39:14.208Z,7.70
2019-02-21T02:40:14.124Z,7.60
2019-02-21T02:41:14.040Z,7.80
2019-02-21T02:42:13.949Z,8.30
2019-02-21T02:43:13.878Z,8.00
2019-02-21T02:44:13.787Z,8.30
2019-02-21T02:45:13.698Z,8.30
2019-02-21T02:46:13.611Z,8.90
2019-02-21T02:47:13.537Z,8.60
2019-02-21T02:48:13.448Z,8.70
2019-02-21T02:49:13.363Z,9.10
2019-02-21T02:50:13.290Z,9.30
2019-02-21T02:51:13.201Z,8.30
2019-02-21T02:52:13.121Z,8.50
2019-02-21T02:53:13.029Z,9.10
2019-02-21T02:54:12.948Z,9.30
2019-02-21T02:55:12.862Z,9.10
2019-02-21T02:56:12.776Z,8.90
2019-02-21T02:57:12.999Z,9.50
2019-02-21T02:58:12.613Z,8.70
2019-02-21T02:59:12.526Z,9.50
2019-02-21T03:00:12.438Z,9.40
2019-02-21T03:01:12.367Z,10.00
2019-02-21T03:02:12.276Z,8.80
2019-02-21T03:03:12.189Z,9.70
2019-02-21T03:04:12.110Z,9.40
2019-02-21T03:05:12.039Z,9.20
2019-02-21T03:06:11.944Z,9.60
2019-02-21T03:07:12.105Z,9.60
2019-02-21T03:08:11.779Z,9.30
2019-02-21T03:09:11.690Z,9.40
2019-02-21T03:10:11.604Z,9.00
2019-02-21T03:11:11.517Z,9.30
2019-02-21T03:12:11.494Z,9.00
2019-02-21T03:13:11.352Z,9.50
2019-02-21T03:14:11.265Z,9.50
2019-02-21T03:15:11.194Z,9.50
2019-02-21T03:16:11.103Z,9.50
2019-02-21T03:17:11.015Z,10.30
2019-02-21T03:18:10.927Z,10.20
2019-02-21T03:19:10.851Z,9.40
2019-02-21T03:20:10.764Z,9.80
2019-02-21T03:21:10.678Z,10.20
2019-02-21T03:22:10.605Z,10.20
2019-02-21T03:23:10.517Z,10.80
2019-02-21T03:24:10.441Z,10.20
2019-02-21T03:25:10.351Z,10.70
2019-02-21T03:26:10.266Z,10.40
2019-02-21T03:27:10.178Z,10.90
2019-02-21T03:28:10.090Z,10.60
2019-02-21T03:29:10.018Z,10.80
2019-02-21T03:30:12.092Z,10.80
2019-02-21T03:31:09.854Z,10.60
2019-02-21T03:32:09.759Z,10.60
2019-02-21T03:33:09.707Z,11.20
2019-02-21T03:34:09.592Z,11.00
2019-02-21T03:35:09.503Z,11.10
2019-02-21T03:36:09.430Z,11.90
2019-02-21T03:37:09.353Z,11.60
2019-02-21T03:38:09.256Z,11.50
2019-02-21T03:39:09.183Z,12.00
2019-02-21T03:40:09.094Z,10.90
2019-02-21T03:41:09.004Z,11.40
2019-02-21T03:42:08.931Z,11.90
2019-02-21T03:43:08.843Z,12.00
2019-02-21T03:44:08.758Z,11.70
2019-02-21T03:45:08.671Z,11.60
2019-02-21T03:46:08.592Z,12.20
2019-02-21T03:47:08.504Z,11.70
2019-02-21T03:48:08.419Z,11.90
2019-02-21T03:49:08.347Z,12.10
2019-02-21T03:50:08.325Z,13.20
2019-02-21T03:51:08.170Z,11.40
2019-02-21T03:52:08.086Z,12.10
2019-02-21T03:53:08.018Z,12.10
2019-02-21T03:54:07.918Z,12.30
2019-02-21T03:55:07.929Z,13.30
2019-02-21T03:56:07.760Z,12.30
2019-02-21T03:57:07.670Z,12.50
2019-02-21T03:58:07.582Z,13.30
2019-02-21T03:59:07.496Z,13.00
2019-02-21T04:00:07.430Z,13.10
2019-02-21T04:01:07.334Z,13.10
2019-02-21T04:02:07.247Z,13.60
2019-02-21T04:03:07.220Z,13.40
2019-02-21T04:04:07.082Z,13.20
2019-02-21T04:05:06.995Z,14.20
2019-02-21T04:06:06.919Z,13.70
2019-02-21T04:07:07.081Z,13.10
2019-02-21T04:08:06.745Z,14.70
2019-02-21T04:09:06.666Z,14.50
2019-02-21T04:10:06.588Z,14.30
2019-02-21T04:11:06.497Z,14.70
2019-02-21T04:12:06.409Z,15.40
2019-02-21T04:13:06.332Z,15.50
2019-02-21T04:14:06.246Z,15.00
2019-02-21T04:15:06.156Z,15.40
2019-02-21T04:16:06.082Z,17.10
2019-02-21T04:17:05.997Z,17.50
2019-02-21T04:18:05.909Z,16.80
2019-02-21T04:19:05.821Z,16.70
2019-02-21T04:20:05.745Z,17.30
2019-02-21T04:21:05.661Z,18.20
2019-02-21T04:22:05.636Z,18.40
2019-02-21T04:23:05.522Z,17.80
2019-02-21T04:24:05.422Z,19.00
2019-02-21T04:25:05.357Z,19.50
2019-02-21T04:26:05.234Z,18.10
2019-02-21T04:27:05.161Z,18.50
2019-02-21T04:28:05.071Z,19.40
2019-02-21T04:29:04.986Z,19.70
2019-02-21T04:30:04.935Z,20.30
2019-02-21T04:31:04.826Z,20.50
2019-02-21T04:32:16.100Z,19.30
2019-02-21T04:33:04.649Z,20.00
2019-02-21T04:34:04.574Z,21.20
2019-02-21T04:35:04.487Z,20.20
2019-02-21T04:36:04.407Z,21.30
2019-02-21T04:37:04.311Z,19.70
2019-02-21T04:38:04.234Z,21.30
2019-02-21T04:39:04.148Z,21.20
2019-02-21T04:40:04.084Z,20.60
2019-02-21T04:41:03.987Z,21.10
2019-02-21T04:42:03.905Z,20.40
2019-02-21T04:43:03.817Z,21.40
2019-02-21T04:44:04.057Z,21.80
2019-02-21T04:45:03.655Z,20.60
2019-02-21T04:46:03.562Z,21.00
2019-02-21T04:47:03.475Z,22.00
2019-02-21T04:48:03.387Z,20.10
2019-02-21T04:49:03.377Z,21.30
2019-02-21T04:50:03.223Z,21.80
2019-02-21T04:51:03.138Z,20.60
2019-02-21T04:52:03.062Z,21.30
2019-02-21T04:53:02.975Z,20.50
2019-02-21T04:54:02.888Z,21.50
2019-02-21T04:55:02.801Z,21.10
2019-02-21T04:56:02.728Z,21.30
2019-02-21T04:57:02.636Z,21.70
2019-02-21T04:58:02.551Z,21.60
2019-02-21T04:59:02.468Z,21.50
2019-02-21T05:00:02.388Z,20.80
2019-02-21T05:01:02.307Z,21.60
2019-02-21T05:02:02.214Z,22.40
2019-02-21T05:03:02.139Z,20.40
2019-02-21T05:04:04.202Z,21.10
2019-02-21T05:05:01.982Z,22.30
2019-02-21T05:06:01.889Z,22.50
2019-02-21T05:07:01.802Z,21.60
2019-02-21T05:08:01.728Z,21.60
2019-02-21T05:09:01.626Z,22.10
2019-02-21T05:10:01.540Z,21.20
2019-02-21T05:11:01.462Z,21.50
2019-02-21T05:12:01.375Z,22.10
2019-02-21T05:13:01.293Z,22.60
2019-02-21T05:14:01.216Z,21.80
2019-02-21T05:15:01.129Z,21.90
2019-02-21T05:16:01.041Z,22.50
2019-02-21T05:17:01.231Z,23.40
2019-02-21T05:18:00.878Z,22.20
2019-02-21T05:19:00.792Z,23.00
2019-02-21T05:20:00.701Z,23.40
2019-02-21T05:21:00.627Z,22.90
2019-02-21T05:22:00.542Z,23.80
2019-02-21T05:23:00.451Z,23.00
2019-02-21T05:24:00.364Z,23.80
2019-02-21T05:25:00.477Z,24.90
2019-02-21T05:26:00.205Z,24.40
2019-02-21T05:27:00.130Z,24.90
2019-02-21T05:28:00.030Z,24.70
2019-02-21T05:28:59.953Z,24.70
2019-02-21T05:29:59.864Z,25.10
2019-02-21T05:30:59.780Z,23.90
2019-02-21T05:31:59.692Z,24.10
2019-02-21T05:32:59.631Z,24.80
2019-02-21T05:33:59.536Z,24.90
2019-02-21T05:34:59.445Z,24.80
2019-02-21T05:35:59.368Z,26.20
2019-02-21T05:36:59.283Z,24.40
2019-02-21T05:37:59.190Z,24.50
2019-02-21T05:38:59.103Z,26.30
2019-02-21T05:39:59.030Z,24.60
2019-02-21T05:40:58.943Z,26.30
2019-02-21T05:41:58.856Z,27.20
2019-02-21T05:42:58.769Z,26.10
2019-02-21T05:43:58.693Z,26.60
2019-02-21T05:44:59.569Z,25.60
2019-02-21T05:45:58.517Z,26.30
2019-02-21T05:46:58.441Z,26.20
2019-02-21T05:48:01.033Z,27.20
2019-02-21T05:48:58.269Z,26.20
2019-02-21T05:49:58.183Z,26.00
2019-02-21T05:50:58.096Z,26.50
2019-02-21T05:51:58.019Z,25.60
2019-02-21T05:52:57.933Z,25.80
2019-02-21T05:53:57.846Z,25.20
2019-02-21T05:54:57.771Z,25.70
2019-02-21T05:55:57.685Z,25.80
2019-02-21T05:56:57.847Z,26.00
2019-02-21T05:57:57.505Z,25.60
2019-02-21T05:58:57.431Z,25.20
2019-02-21T05:59:57.344Z,25.90
2019-02-21T06:00:57.316Z,25.60
2019-02-21T06:01:57.171Z,25.40
2019-02-21T06:02:57.101Z,25.30
2019-02-21T06:03:57.008Z,25.00
2019-02-21T06:04:56.918Z,23.80
2019-02-21T06:05:56.834Z,26.20
2019-02-21T06:06:56.760Z,24.60
2019-02-21T06:07:56.668Z,25.40
2019-02-21T06:08:56.583Z,24.50
2019-02-21T06:09:56.506Z,24.60
2019-02-21T06:10:56.419Z,24.80
2019-02-21T06:11:56.333Z,24.80
2019-02-21T06:12:56.246Z,25.30
2019-02-21T06:13:56.171Z,25.00
2019-02-21T06:14:56.093Z,24.50
2019-02-21T06:15:55.998Z,25.10
2019-02-21T06:16:55.921Z,24.00
2019-02-21T06:17:55.837Z,25.60
2019-02-21T06:18:55.745Z,23.60
2019-02-21T06:19:55.658Z,23.60
2019-02-21T06:20:57.479Z,25.20
2019-02-21T06:21:55.512Z,24.60
2019-02-21T06:22:55.410Z,24.20
2019-02-21T06:23:55.323Z,24.10
2019-02-21T06:24:55.247Z,24.60
2019-02-21T06:25:58.900Z,23.20
2019-02-21T06:26:55.073Z,23.70
2019-02-21T06:27:54.988Z,25.20
2019-02-21T06:28:54.937Z,23.40
2019-02-21T06:29:54.820Z,24.10
2019-02-21T06:30:54.742Z,24.00
2019-02-21T06:31:54.651Z,23.70
2019-02-21T06:33:04.435Z,23.20
2019-02-21T06:33:54.497Z,24.20
2019-02-21T06:34:54.420Z,24.40
2019-02-21T06:35:54.315Z,24.20
2019-02-21T06:36:54.235Z,24.50
2019-02-21T06:37:54.148Z,23.30
2019-02-21T06:38:54.059Z,24.60
2019-02-21T06:39:53.974Z,22.70
2019-02-21T06:40:53.899Z,24.00
2019-02-21T06:41:59.547Z,22.90
2019-02-21T06:42:53.725Z,23.90
2019-02-21T06:43:53.659Z,23.30
2019-02-21T06:44:53.561Z,23.20
2019-02-21T06:45:53.473Z,24.30
2019-02-21T06:46:53.386Z,23.50
2019-02-21T06:47:53.311Z,23.00
2019-02-21T06:48:53.294Z,23.60
2019-02-21T06:49:53.138Z,23.30
2019-02-21T06:50:53.067Z,23.70
2019-02-21T06:51:52.974Z,23.40
2019-02-21T06:52:52.886Z,23.70
2019-02-21T06:53:53.281Z,24.20
2019-02-21T06:54:52.723Z,23.60
2019-02-21T06:55:52.637Z,23.90
2019-02-21T06:56:52.548Z,22.50
2019-02-21T06:57:52.482Z,23.70
2019-02-21T06:58:52.388Z,23.00
2019-02-21T06:59:52.299Z,23.20
2019-02-21T07:00:52.216Z,23.60
2019-02-21T07:01:52.138Z,23.30
2019-02-21T07:02:54.212Z,23.20
2019-02-21T07:03:51.965Z,22.60
2019-02-21T07:04:51.887Z,22.60
2019-02-21T07:05:51.800Z,21.80
2019-02-21T07:06:51.713Z,21.80
2019-02-21T07:07:51.625Z,22.30
2019-02-21T07:08:54.063Z,21.90
2019-02-21T07:09:51.465Z,21.10
2019-02-21T07:10:51.377Z,21.90
2019-02-21T07:11:51.302Z,21.60
2019-02-21T07:12:51.216Z,22.10
2019-02-21T07:13:51.127Z,22.20
2019-02-21T07:14:51.067Z,21.50
2019-02-21T07:15:50.968Z,22.30
2019-02-21T07:16:51.125Z,21.50
2019-02-21T07:17:50.790Z,22.00
2019-02-21T07:18:50.714Z,21.20
2019-02-21T07:19:50.627Z,21.10
2019-02-21T07:20:50.541Z,21.10
2019-02-21T07:21:50.466Z,20.90
2019-02-21T07:22:50.380Z,20.80
2019-02-21T07:23:50.298Z,21.10
2019-02-21T07:24:50.218Z,21.70
2019-02-21T07:25:50.748Z,20.90
2019-02-21T07:26:50.041Z,21.50
2019-02-21T07:27:49.965Z,21.20
2019-02-21T07:28:49.878Z,21.70
2019-02-21T07:29:49.797Z,21.70
2019-02-21T07:30:49.703Z,22.10
2019-02-21T07:31:49.688Z,21.10
2019-02-21T07:32:49.543Z,22.00
2019-02-21T07:33:49.456Z,21.70
2019-02-21T07:34:49.386Z,22.50
2019-02-21T07:35:49.293Z,21.90
2019-02-21T07:36:50.114Z,21.10
2019-02-21T07:37:49.127Z,21.90
2019-02-21T07:38:49.041Z,20.90
2019-02-21T07:39:50.812Z,22.60
2019-02-21T07:40:48.881Z,20.40
2019-02-21T07:41:50.068Z,21.10
2019-02-21T07:42:48.717Z,20.40
2019-02-21T07:43:48.632Z,20.70
2019-02-21T07:44:48.568Z,19.80
2019-02-21T07:45:48.454Z,20.60
2019-02-21T07:46:48.381Z,21.10
2019-02-21T07:47:48.292Z,20.10
2019-02-21T07:48:48.208Z,20.40
2019-02-21T07:49:48.133Z,20.40
2019-02-21T07:50:48.046Z,21.00
2019-02-21T07:51:47.971Z,21.40
2019-02-21T07:52:47.867Z,22.10
2019-02-21T07:53:47.795Z,20.40
2019-02-21T07:54:49.478Z,19.70
2019-02-21T07:55:47.620Z,20.60
2019-02-21T07:56:47.545Z,20.20
2019-02-21T07:57:47.459Z,20.80
2019-02-21T07:58:47.370Z,20.70
2019-02-21T07:59:47.298Z,20.00
2019-02-21T08:00:47.209Z,20.70
2019-02-21T08:01:47.122Z,20.90
2019-02-21T08:02:47.054Z,20.30
2019-02-21T08:03:48.554Z,20.50
2019-02-21T08:04:46.869Z,20.30
2019-02-21T08:05:46.794Z,21.10
2019-02-21T08:06:46.731Z,20.10
2019-02-21T08:07:46.619Z,19.90
2019-02-21T08:08:46.548Z,19.90
2019-02-21T08:09:46.458Z,20.90
2019-02-21T08:10:46.372Z,20.50
2019-02-21T08:11:46.299Z,21.10
2019-02-21T08:12:46.212Z,21.40
2019-02-21T08:13:46.119Z,21.80
2019-02-21T08:14:46.034Z,22.50
2019-02-21T08:15:45.958Z,22.90
2019-02-21T08:16:45.872Z,21.60
2019-02-21T08:17:45.795Z,22.60
2019-02-21T08:18:45.716Z,22.50
2019-02-21T08:19:45.625Z,22.40
2019-02-21T08:20:45.551Z,22.20
2019-02-21T08:21:45.495Z,23.70
2019-02-21T08:22:45.372Z,23.30
2019-02-21T08:23:50.607Z,24.30
2019-02-21T08:24:45.215Z,25.50
2019-02-21T08:25:45.129Z,24.70
2019-02-21T08:26:45.034Z,26.40
2019-02-21T08:27:44.959Z,26.10
2019-02-21T08:28:44.874Z,25.80
2019-02-21T08:29:44.787Z,25.50
2019-02-21T08:30:44.701Z,26.00
2019-02-21T08:31:44.623Z,26.40
2019-02-21T08:32:44.536Z,27.50
2019-02-21T08:33:47.114Z,26.40
2019-02-21T08:34:44.373Z,26.10
2019-02-21T08:35:44.287Z,27.00
2019-02-21T08:36:44.198Z,27.00
2019-02-21T08:37:44.114Z,27.00
2019-02-21T08:38:44.034Z,27.20
2019-02-21T08:39:43.947Z,28.00
2019-02-21T08:40:43.863Z,26.20
2019-02-21T08:41:43.787Z,27.80
2019-02-21T08:42:43.700Z,27.20
2019-02-21T08:43:43.612Z,27.80
2019-02-21T08:44:43.523Z,27.60
2019-02-21T08:45:43.447Z,28.40
2019-02-21T08:46:43.360Z,28.40
2019-02-21T08:47:43.274Z,26.60
2019-02-21T08:48:43.188Z,28.90
2019-02-21T08:49:43.110Z,27.20
2019-02-21T08:50:43.028Z,27.10
2019-02-21T08:51:42.935Z,29.00
2019-02-21T08:52:42.864Z,28.90
2019-02-21T08:53:42.778Z,27.80
2019-02-21T08:54:42.701Z,26.40
2019-02-21T08:55:42.602Z,27.50
2019-02-21T08:56:42.532Z,27.40
2019-02-21T08:57:42.436Z,27.50
2019-02-21T08:58:42.349Z,28.20
2019-02-21T08:59:42.426Z,28.40
2019-02-21T09:00:42.188Z,27.20
2019-02-21T09:01:42.104Z,27.20
2019-02-21T09:02:42.014Z,26.80
2019-02-21T09:03:41.938Z,27.40
2019-02-21T09:04:41.852Z,26.90
2019-02-21T09:05:41.770Z,26.40
2019-02-21T09:06:41.690Z,25.50
2019-02-21T09:07:41.606Z,25.30
2019-02-21T09:08:41.525Z,27.60
2019-02-21T09:09:41.437Z,27.20
2019-02-21T09:10:41.350Z,27.20
2019-02-21T09:11:41.264Z,27.50
2019-02-21T09:12:41.194Z,26.00
2019-02-21T09:13:41.666Z,26.10
2019-02-21T09:14:41.016Z,25.20
2019-02-21T09:15:40.929Z,26.00
2019-02-21T09:16:40.851Z,25.80
2019-02-21T09:17:40.763Z,25.90
2019-02-21T09:18:40.678Z,26.10
2019-02-21T09:19:40.590Z,25.20
2019-02-21T09:20:40.514Z,26.10
2019-02-21T09:21:40.427Z,26.50
2019-02-21T09:22:40.340Z,26.70
2019-02-21T09:23:40.281Z,27.10
2019-02-21T09:24:42.415Z,26.10
2019-02-21T09:25:40.091Z,25.80
2019-02-21T09:26:40.016Z,26.40
2019-02-21T09:27:39.935Z,26.10
2019-02-21T09:28:39.843Z,27.20
2019-02-21T09:29:39.765Z,25.80
2019-02-21T09:30:39.679Z,26.50
2019-02-21T09:31:39.590Z,28.20
2019-02-21T09:32:41.892Z,27.00
2019-02-21T09:33:39.440Z,28.10
2019-02-21T09:34:39.341Z,28.30
2019-02-21T09:35:39.255Z,27.60
2019-02-21T09:36:39.180Z,27.10
2019-02-21T09:37:39.113Z,28.00
2019-02-21T09:38:39.025Z,27.00
2019-02-21T09:39:38.918Z,27.40
2019-02-21T09:40:38.840Z,29.50
2019-02-21T09:41:38.760Z,27.90
2019-02-21T09:42:38.666Z,27.10
2019-02-21T09:43:38.605Z,26.70
2019-02-21T09:44:38.507Z,26.80
2019-02-21T09:45:38.421Z,26.20
2019-02-21T09:46:40.558Z,26.20
2019-02-21T09:47:38.257Z,25.20
2019-02-21T09:48:38.166Z,25.40
2019-02-21T09:49:38.091Z,26.10
2019-02-21T09:50:38.005Z,25.90
2019-02-21T09:51:37.917Z,25.70
2019-02-21T09:52:37.842Z,25.50
2019-02-21T09:53:37.757Z,24.70
2019-02-21T09:54:37.670Z,24.70
2019-02-21T09:55:37.585Z,24.50
2019-02-21T09:56:37.505Z,25.10
2019-02-21T09:57:37.417Z,24.50
2019-02-21T09:58:37.337Z,24.50
2019-02-21T09:59:37.256Z,24.90
2019-02-21T10:00:37.170Z,23.40
2019-02-21T10:01:37.084Z,25.30
2019-02-21T10:02:37.008Z,24.20
2019-02-21T10:03:36.921Z,23.90
2019-02-21T10:04:36.831Z,24.30
2019-02-21T10:05:36.757Z,24.50
2019-02-21T10:06:36.687Z,24.70
2019-02-21T10:07:37.138Z,22.90
2019-02-21T10:08:36.506Z,22.50
2019-02-21T10:09:36.419Z,22.50
2019-02-21T10:10:36.331Z,22.00
2019-02-21T10:11:36.257Z,21.60
2019-02-21T10:12:36.201Z,22.10
2019-02-21T10:13:36.096Z,21.30
2019-02-21T10:14:36.011Z,21.20
2019-02-21T10:15:35.923Z,22.70
2019-02-21T10:16:35.844Z,22.70
2019-02-21T10:17:35.760Z,22.00
2019-02-21T10:18:35.670Z,21.40
2019-02-21T10:19:35.749Z,21.10
2019-02-21T10:20:35.511Z,21.30
2019-02-21T10:21:35.434Z,21.90
2019-02-21T10:22:35.347Z,22.30
2019-02-21T10:23:35.268Z,21.50
2019-02-21T10:24:35.185Z,20.20
2019-02-21T10:25:35.097Z,21.70
2019-02-21T10:26:35.035Z,20.40
2019-02-21T10:27:34.936Z,19.80
2019-02-21T10:28:34.846Z,20.30
2019-02-21T10:29:34.771Z,19.80
2019-02-21T10:30:36.304Z,18.20
2019-02-21T10:31:34.609Z,20.50
2019-02-21T10:32:34.524Z,19.40
2019-02-21T10:33:34.437Z,19.50
2019-02-21T10:34:42.702Z,20.20
2019-02-21T10:35:34.274Z,20.00
2019-02-21T10:36:34.206Z,19.50
2019-02-21T10:37:34.110Z,20.40
2019-02-21T10:38:34.035Z,19.10
2019-02-21T10:39:33.950Z,20.50
2019-02-21T10:40:33.863Z,19.30
2019-02-21T10:41:33.867Z,18.70
2019-02-21T10:42:33.701Z,19.70
2019-02-21T10:43:33.623Z,19.50
2019-02-21T10:44:33.538Z,18.40
2019-02-21T10:45:33.464Z,19.00
2019-02-21T10:46:33.503Z,18.40
2019-02-21T10:47:33.288Z,18.70
2019-02-21T10:48:33.211Z,18.20
2019-02-21T10:49:33.123Z,18.90
2019-02-21T10:50:33.061Z,17.50
2019-02-21T10:51:32.962Z,18.60
2019-02-21T10:52:32.889Z,19.30
2019-02-21T10:53:32.800Z,17.40
2019-02-21T10:54:32.734Z,17.70
2019-02-21T10:55:32.639Z,17.90
2019-02-21T10:56:32.552Z,17.50
2019-02-21T10:57:32.476Z,17.40
2019-02-21T10:58:32.389Z,17.20
2019-02-21T10:59:32.314Z,17.70
2019-02-21T11:00:32.224Z,16.40
2019-02-21T11:01:32.149Z,16.40
2019-02-21T11:02:32.063Z,16.60
2019-02-21T11:03:31.978Z,16.90
2019-02-21T11:04:31.915Z,15.90
2019-02-21T11:05:31.814Z,16.30
2019-02-21T11:06:31.756Z,16.70
2019-02-21T11:07:31.652Z,15.80
2019-02-21T11:08:31.575Z,16.10
2019-02-21T11:09:31.487Z,16.30
2019-02-21T11:10:31.415Z,15.40
2019-02-21T11:11:31.325Z,15.60
2019-02-21T11:12:31.250Z,15.00
2019-02-21T11:13:31.167Z,15.50
2019-02-21T11:14:31.088Z,15.20
2019-02-21T11:15:31.001Z,15.00
2019-02-21T11:16:30.940Z,14.40
2019-02-21T11:17:30.842Z,14.70
2019-02-21T11:18:30.754Z,14.80
2019-02-21T11:19:30.683Z,14.90
2019-02-21T11:20:30.606Z,15.00
2019-02-21T11:21:30.515Z,14.80
2019-02-21T11:22:30.442Z,14.00
2019-02-21T11:23:30.352Z,14.30
2019-02-21T11:24:30.278Z,14.00
2019-02-21T11:25:30.197Z,14.60
2019-02-21T11:26:30.124Z,13.80
2019-02-21T11:27:30.029Z,14.90
2019-02-21T11:28:29.957Z,14.20
2019-02-21T11:29:29.867Z,13.60
2019-02-21T11:30:29.792Z,14.40
2019-02-21T11:31:29.707Z,14.20
2019-02-21T11:32:29.627Z,12.90
2019-02-21T11:33:29.544Z,13.40
2019-02-21T11:34:29.466Z,13.20
2019-02-21T11:35:29.378Z,13.60
2019-02-21T11:36:29.306Z,13.10
2019-02-21T11:37:29.230Z,12.80
2019-02-21T11:38:29.143Z,12.20
2019-02-21T11:39:29.071Z,13.30
2019-02-21T11:40:28.978Z,12.70
2019-02-21T11:41:28.904Z,13.40
2019-02-21T11:42:28.817Z,12.80
2019-02-21T11:43:28.741Z,13.00
2019-02-21T11:44:28.654Z,12.50
2019-02-21T11:45:28.579Z,12.70
2019-02-21T11:46:28.494Z,12.20
2019-02-21T11:47:28.417Z,12.40
2019-02-21T11:48:28.331Z,12.50
2019-02-21T11:49:28.256Z,12.50
2019-02-21T11:50:28.169Z,12.00
2019-02-21T11:51:28.095Z,11.90
2019-02-21T11:52:28.007Z,12.30
2019-02-21T11:53:27.929Z,11.90
2019-02-21T11:54:27.843Z,12.20
2019-02-21T11:55:27.771Z,12.20
2019-02-21T11:56:27.683Z,12.30
2019-02-21T11:57:27.607Z,11.90
2019-02-21T11:58:27.520Z,12.70
2019-02-21T11:59:27.445Z,12.20
2019-02-21T12:00:27.354Z,11.90
2019-02-21T12:01:27.280Z,12.70
2019-02-21T12:02:27.193Z,12.70
2019-02-21T12:03:27.119Z,12.50
2019-02-21T12:04:27.036Z,11.80
2019-02-21T12:05:33.825Z,12.10
2019-02-21T12:06:26.872Z,12.10
2019-02-21T12:07:26.801Z,12.70
2019-02-21T12:08:26.707Z,12.00
2019-02-21T12:09:26.631Z,11.20
2019-02-21T12:10:26.544Z,12.10
2019-02-21T12:11:26.470Z,11.40
2019-02-21T12:12:26.385Z,11.70
2019-02-21T12:13:26.309Z,11.40
2019-02-21T12:14:26.223Z,11.70
2019-02-21T12:15:26.147Z,12.30
2019-02-21T12:16:26.060Z,11.00
2019-02-21T12:17:25.984Z,11.10
2019-02-21T12:18:25.913Z,11.90
2019-02-21T12:19:25.823Z,11.40
2019-02-21T12:20:25.745Z,11.50
2019-02-21T12:21:25.657Z,11.70
2019-02-21T12:22:25.571Z,11.40
2019-02-21T12:23:25.497Z,11.80
2019-02-21T12:24:25.427Z,11.20
2019-02-21T12:25:25.335Z,11.70
2019-02-21T12:26:25.248Z,11.40
2019-02-21T12:27:25.173Z,11.20
2019-02-21T12:28:25.085Z,11.30
2019-02-21T12:29:25.012Z,11.10
2019-02-21T12:30:24.921Z,11.00
2019-02-21T12:31:24.848Z,11.40
2019-02-21T12:32:24.759Z,10.90
2019-02-21T12:33:24.696Z,10.60
2019-02-21T12:34:24.601Z,11.10
2019-02-21T12:35:29.501Z,11.30
2019-02-21T12:36:24.436Z,10.70
2019-02-21T12:37:24.363Z,11.30
2019-02-21T12:38:24.274Z,11.30
2019-02-21T12:39:24.200Z,10.90
2019-02-21T12:40:24.114Z,10.90
2019-02-21T12:41:24.035Z,10.80
2019-02-21T12:42:23.948Z,10.70
2019-02-21T12:43:23.876Z,11.00
2019-02-21T12:44:23.789Z,11.20
2019-02-21T12:45:23.761Z,10.90
2019-02-21T12:46:23.626Z,11.20
2019-02-21T12:47:23.551Z,10.80
2019-02-21T12:48:23.465Z,10.90
2019-02-21T12:49:23.393Z,10.50
2019-02-21T12:50:23.315Z,11.00
2019-02-21T12:51:23.227Z,10.70
2019-02-21T12:52:23.136Z,10.40
2019-02-21T12:53:23.061Z,10.60
2019-02-21T12:54:24.627Z,10.80
2019-02-21T12:55:29.468Z,10.50
2019-02-21T12:56:22.826Z,10.70
2019-02-21T12:57:22.738Z,10.40
2019-02-21T12:58:22.652Z,10.50